sensor_id;sensor_type;location;lat;lon;timestamp;P1;durP1;ratioP1;P2;durP2;ratioP2
76105;SDS011;64832;45.274;5.880;2022-12-28T16:52:58;14.65;;;8.27;;
76105;SDS011;64832;45.274;5.880;2022-12-28T16:55:28;13.88;;;8.20;;
76105;SDS011;64832;45.274;5.880;2022-12-28T16:57:54;11.80;;;7.35;;
76105;SDS011;64832;45.274;5.880;2022-12-28T17:00:20;11.68;;;7.97;;
76105;SDS011;64832;45.274;5.880;2022-12-28T17:02:46;12.48;;;8.32;;
76105;SDS011;64832;45.274;5.880;2022-12-28T17:05:11;10.95;;;7.68;;
76105;SDS011;64832;45.274;5.880;2022-12-28T17:07:37;11.35;;;8.38;;
76105;SDS011;64832;45.274;5.880;2022-12-28T17:10:03;12.13;;;7.97;;
76105;SDS011;64832;45.274;5.880;2022-12-28T17:12:29;10.85;;;7.13;;
76105;SDS011;64832;45.274;5.880;2022-12-28T17:14:54;10.40;;;7.18;;
76105;SDS011;64832;45.274;5.880;2022-12-28T17:17:20;10.60;;;7.38;;
76105;SDS011;64832;45.274;5.880;2022-12-28T17:19:45;12.05;;;7.65;;
76105;SDS011;64832;45.274;5.880;2022-12-28T17:22:10;9.57;;;7.10;;
76105;SDS011;64832;45.274;5.880;2022-12-28T17:24:36;12.02;;;7.25;;
76105;SDS011;64832;45.274;5.880;2022-12-28T17:27:02;10.02;;;7.28;;
76105;SDS011;64832;45.274;5.880;2022-12-28T17:29:27;10.85;;;6.80;;
76105;SDS011;64832;45.274;5.880;2022-12-28T17:31:53;10.27;;;6.50;;
76105;SDS011;64832;45.274;5.880;2022-12-28T17:34:18;12.10;;;6.70;;
76105;SDS011;64832;45.274;5.880;2022-12-28T17:36:44;12.27;;;6.68;;
76105;SDS011;64832;45.274;5.880;2022-12-28T17:39:09;11.75;;;6.55;;
76105;SDS011;64832;45.274;5.880;2022-12-28T17:41:35;9.90;;;6.45;;
76105;SDS011;64832;45.274;5.880;2022-12-28T17:44:01;10.50;;;6.85;;
76105;SDS011;64832;45.274;5.880;2022-12-28T17:46:28;7.38;;;5.97;;
76105;SDS011;64832;45.274;5.880;2022-12-28T17:48:55;10.10;;;6.65;;
76105;SDS011;64832;45.274;5.880;2022-12-28T17:51:21;8.50;;;6.43;;
76105;SDS011;64832;45.274;5.880;2022-12-28T17:53:49;8.35;;;6.38;;
76105;SDS011;64832;45.274;5.880;2022-12-28T17:56:15;9.65;;;6.15;;
76105;SDS011;64832;45.274;5.880;2022-12-28T17:58:41;9.43;;;6.60;;
76105;SDS011;64832;45.274;5.880;2022-12-28T18:01:08;8.20;;;6.18;;
76105;SDS011;64832;45.274;5.880;2022-12-28T18:03:34;11.20;;;6.72;;
76105;SDS011;64832;45.274;5.880;2022-12-28T18:06:00;10.00;;;6.50;;
76105;SDS011;64832;45.274;5.880;2022-12-28T18:08:26;10.18;;;6.35;;
76105;SDS011;64832;45.274;5.880;2022-12-28T18:10:52;8.80;;;6.35;;
76105;SDS011;64832;45.274;5.880;2022-12-28T18:13:17;8.45;;;6.40;;
76105;SDS011;64832;45.274;5.880;2022-12-28T18:15:44;9.20;;;6.18;;
76105;SDS011;64832;45.274;5.880;2022-12-28T18:18:11;9.40;;;6.63;;
76105;SDS011;64832;45.274;5.880;2022-12-28T18:20:38;7.25;;;5.95;;
76105;SDS011;64832;45.274;5.880;2022-12-28T18:23:03;7.72;;;5.95;;
76105;SDS011;64832;45.274;5.880;2022-12-28T18:25:30;7.80;;;6.03;;
76105;SDS011;64832;45.274;5.880;2022-12-28T18:27:55;7.85;;;6.38;;
76105;SDS011;64832;45.274;5.880;2022-12-28T18:30:21;6.55;;;5.72;;
76105;SDS011;64832;45.274;5.880;2022-12-28T18:32:47;8.18;;;5.95;;
76105;SDS011;64832;45.274;5.880;2022-12-28T18:35:12;7.65;;;6.50;;
76105;SDS011;64832;45.274;5.880;2022-12-28T18:37:38;7.45;;;5.82;;
76105;SDS011;64832;45.274;5.880;2022-12-28T18:40:04;9.90;;;6.15;;
76105;SDS011;64832;45.274;5.880;2022-12-28T18:42:30;10.13;;;6.32;;
76105;SDS011;64832;45.274;5.880;2022-12-28T18:44:55;7.85;;;6.68;;
76105;SDS011;64832;45.274;5.880;2022-12-28T18:47:22;9.25;;;6.57;;
76105;SDS011;64832;45.274;5.880;2022-12-28T18:49:47;7.57;;;5.72;;
76105;SDS011;64832;45.274;5.880;2022-12-28T18:52:13;10.57;;;6.53;;
76105;SDS011;64832;45.274;5.880;2022-12-28T18:54:39;10.40;;;6.88;;
76105;SDS011;64832;45.274;5.880;2022-12-28T18:57:04;9.43;;;6.63;;
76105;SDS011;64832;45.274;5.880;2022-12-28T18:59:30;8.48;;;6.32;;
76105;SDS011;64832;45.274;5.880;2022-12-28T19:01:55;10.43;;;6.70;;
76105;SDS011;64832;45.274;5.880;2022-12-28T19:04:22;8.07;;;6.53;;
76105;SDS011;64832;45.274;5.880;2022-12-28T19:06:47;10.18;;;6.80;;
76105;SDS011;64832;45.274;5.880;2022-12-28T19:09:13;8.23;;;6.32;;
76105;SDS011;64832;45.274;5.880;2022-12-28T19:11:38;11.82;;;7.25;;
76105;SDS011;64832;45.274;5.880;2022-12-28T19:14:05;9.20;;;6.97;;
76105;SDS011;64832;45.274;5.880;2022-12-28T19:16:32;10.13;;;7.05;;
76105;SDS011;64832;45.274;5.880;2022-12-28T19:18:59;8.02;;;6.63;;
76105;SDS011;64832;45.274;5.880;2022-12-28T19:21:26;10.13;;;6.70;;
76105;SDS011;64832;45.274;5.880;2022-12-28T19:23:56;8.07;;;6.55;;
76105;SDS011;64832;45.274;5.880;2022-12-28T19:26:23;10.95;;;7.13;;
76105;SDS011;64832;45.274;5.880;2022-12-28T19:28:49;9.25;;;7.38;;
76105;SDS011;64832;45.274;5.880;2022-12-28T19:31:14;8.88;;;6.90;;
76105;SDS011;64832;45.274;5.880;2022-12-28T19:33:40;10.23;;;7.07;;
76105;SDS011;64832;45.274;5.880;2022-12-28T19:36:06;9.60;;;6.78;;
76105;SDS011;64832;45.274;5.880;2022-12-28T19:38:32;9.10;;;7.10;;
76105;SDS011;64832;45.274;5.880;2022-12-28T19:40:58;9.98;;;6.85;;
76105;SDS011;64832;45.274;5.880;2022-12-28T19:43:28;12.45;;;7.15;;
76105;SDS011;64832;45.274;5.880;2022-12-28T19:45:59;9.05;;;7.20;;
76105;SDS011;64832;45.274;5.880;2022-12-28T19:48:26;7.07;;;6.32;;
76105;SDS011;64832;45.274;5.880;2022-12-28T19:50:51;11.10;;;6.80;;
76105;SDS011;64832;45.274;5.880;2022-12-28T19:53:17;11.18;;;6.28;;
76105;SDS011;64832;45.274;5.880;2022-12-28T19:55:42;12.45;;;7.00;;
76105;SDS011;64832;45.274;5.880;2022-12-28T19:58:07;12.20;;;6.38;;
76105;SDS011;64832;45.274;5.880;2022-12-28T20:00:33;11.20;;;6.82;;
76105;SDS011;64832;45.274;5.880;2022-12-28T20:02:58;11.23;;;6.80;;
76105;SDS011;64832;45.274;5.880;2022-12-28T20:05:23;9.90;;;6.07;;
76105;SDS011;64832;45.274;5.880;2022-12-28T20:07:49;14.52;;;6.43;;
76105;SDS011;64832;45.274;5.880;2022-12-28T20:10:15;14.20;;;7.00;;
76105;SDS011;64832;45.274;5.880;2022-12-28T20:12:41;17.50;;;7.43;;
76105;SDS011;64832;45.274;5.880;2022-12-28T20:15:06;13.60;;;6.72;;
76105;SDS011;64832;45.274;5.880;2022-12-28T20:17:32;11.57;;;6.43;;
76105;SDS011;64832;45.274;5.880;2022-12-28T20:19:59;15.55;;;6.55;;
76105;SDS011;64832;45.274;5.880;2022-12-28T20:22:24;17.05;;;6.50;;
76105;SDS011;64832;45.274;5.880;2022-12-28T20:24:50;13.38;;;7.30;;
76105;SDS011;64832;45.274;5.880;2022-12-28T20:27:15;11.23;;;6.43;;
76105;SDS011;64832;45.274;5.880;2022-12-28T20:29:40;10.35;;;5.90;;
76105;SDS011;64832;45.274;5.880;2022-12-28T20:32:06;11.38;;;6.65;;
76105;SDS011;64832;45.274;5.880;2022-12-28T20:34:31;16.45;;;6.45;;
76105;SDS011;64832;45.274;5.880;2022-12-28T20:36:58;12.75;;;6.65;;
76105;SDS011;64832;45.274;5.880;2022-12-28T20:39:24;10.27;;;6.43;;
76105;SDS011;64832;45.274;5.880;2022-12-28T20:41:49;11.98;;;6.45;;
76105;SDS011;64832;45.274;5.880;2022-12-28T20:44:33;18.70;;;6.80;;
76105;SDS011;64832;45.274;5.880;2022-12-28T20:46:59;25.02;;;6.75;;
76105;SDS011;64832;45.274;5.880;2022-12-28T20:49:26;12.70;;;6.05;;
76105;SDS011;64832;45.274;5.880;2022-12-28T20:51:52;14.13;;;5.93;;
76105;SDS011;64832;45.274;5.880;2022-12-28T20:54:18;12.75;;;6.68;;
76105;SDS011;64832;45.274;5.880;2022-12-28T20:56:44;9.73;;;7.05;;
76105;SDS011;64832;45.274;5.880;2022-12-28T20:59:10;13.85;;;8.45;;
76105;SDS011;64832;45.274;5.880;2022-12-28T21:01:36;12.35;;;7.20;;
76105;SDS011;64832;45.274;5.880;2022-12-28T21:04:03;12.10;;;7.00;;
76105;SDS011;64832;45.274;5.880;2022-12-28T21:06:29;16.98;;;7.90;;
76105;SDS011;64832;45.274;5.880;2022-12-28T21:08:54;14.93;;;8.73;;
76105;SDS011;64832;45.274;5.880;2022-12-28T21:11:20;12.70;;;8.05;;
76105;SDS011;64832;45.274;5.880;2022-12-28T21:13:45;11.45;;;8.13;;
76105;SDS011;64832;45.274;5.880;2022-12-28T21:16:11;12.57;;;7.85;;
76105;SDS011;64832;45.274;5.880;2022-12-28T21:18:38;12.30;;;8.40;;
76105;SDS011;64832;45.274;5.880;2022-12-28T21:21:03;12.70;;;7.65;;
76105;SDS011;64832;45.274;5.880;2022-12-28T21:23:29;11.43;;;7.53;;
76105;SDS011;64832;45.274;5.880;2022-12-28T21:26:02;11.50;;;7.72;;
76105;SDS011;64832;45.274;5.880;2022-12-28T21:28:32;9.85;;;7.93;;
76105;SDS011;64832;45.274;5.880;2022-12-28T21:30:58;11.23;;;7.50;;
76105;SDS011;64832;45.274;5.880;2022-12-28T21:33:26;12.38;;;7.85;;
76105;SDS011;64832;45.274;5.880;2022-12-28T21:38:24;12.00;;;7.53;;
76105;SDS011;64832;45.274;5.880;2022-12-28T21:43:22;9.18;;;7.05;;
76105;SDS011;64832;45.274;5.880;2022-12-28T21:46:04;13.30;;;7.00;;
76105;SDS011;64832;45.274;5.880;2022-12-28T21:48:35;9.77;;;6.90;;
76105;SDS011;64832;45.274;5.880;2022-12-28T21:51:02;8.88;;;7.22;;
76105;SDS011;64832;45.274;5.880;2022-12-28T21:53:52;9.07;;;6.82;;
76105;SDS011;64832;45.274;5.880;2022-12-28T21:56:17;11.73;;;6.57;;
76105;SDS011;64832;45.274;5.880;2022-12-28T21:58:46;9.27;;;6.38;;
76105;SDS011;64832;45.274;5.880;2022-12-28T22:01:12;9.40;;;6.75;;
76105;SDS011;64832;45.274;5.880;2022-12-28T22:03:56;11.20;;;6.93;;
76105;SDS011;64832;45.274;5.880;2022-12-28T22:06:40;8.75;;;6.70;;
76105;SDS011;64832;45.274;5.880;2022-12-28T22:09:05;9.35;;;6.50;;
76105;SDS011;64832;45.274;5.880;2022-12-28T22:11:49;12.00;;;6.88;;
76105;SDS011;64832;45.274;5.880;2022-12-28T22:14:33;9.70;;;6.95;;
76105;SDS011;64832;45.274;5.880;2022-12-28T22:16:58;9.07;;;6.53;;
76105;SDS011;64832;45.274;5.880;2022-12-28T22:19:24;8.80;;;6.53;;
76105;SDS011;64832;45.274;5.880;2022-12-28T22:21:49;8.50;;;6.43;;
76105;SDS011;64832;45.274;5.880;2022-12-28T22:24:14;9.73;;;6.78;;
76105;SDS011;64832;45.274;5.880;2022-12-28T22:26:40;8.50;;;6.75;;
76105;SDS011;64832;45.274;5.880;2022-12-28T22:29:05;8.30;;;6.60;;
76105;SDS011;64832;45.274;5.880;2022-12-28T22:31:31;8.35;;;6.72;;
76105;SDS011;64832;45.274;5.880;2022-12-28T22:33:56;9.13;;;7.00;;
76105;SDS011;64832;45.274;5.880;2022-12-28T22:36:22;8.32;;;6.28;;
76105;SDS011;64832;45.274;5.880;2022-12-28T22:38:47;10.98;;;6.70;;
76105;SDS011;64832;45.274;5.880;2022-12-28T22:41:12;8.25;;;6.53;;
76105;SDS011;64832;45.274;5.880;2022-12-28T22:43:38;11.55;;;6.97;;
76105;SDS011;64832;45.274;5.880;2022-12-28T22:46:04;9.35;;;6.43;;
76105;SDS011;64832;45.274;5.880;2022-12-28T22:48:34;10.55;;;7.03;;
76105;SDS011;64832;45.274;5.880;2022-12-28T22:51:00;7.22;;;6.00;;
76105;SDS011;64832;45.274;5.880;2022-12-28T22:53:27;8.65;;;6.72;;
76105;SDS011;64832;45.274;5.880;2022-12-28T22:55:59;9.50;;;6.60;;
76105;SDS011;64832;45.274;5.880;2022-12-28T22:58:25;8.48;;;6.18;;
76105;SDS011;64832;45.274;5.880;2022-12-28T23:01:00;8.18;;;6.25;;
76105;SDS011;64832;45.274;5.880;2022-12-28T23:03:30;8.27;;;6.13;;
76105;SDS011;64832;45.274;5.880;2022-12-28T23:05:55;8.48;;;6.75;;
76105;SDS011;64832;45.274;5.880;2022-12-28T23:08:21;8.65;;;6.13;;
76105;SDS011;64832;45.274;5.880;2022-12-28T23:10:53;7.18;;;5.82;;
76105;SDS011;64832;45.274;5.880;2022-12-28T23:13:20;7.43;;;6.22;;
76105;SDS011;64832;45.274;5.880;2022-12-28T23:15:55;9.00;;;6.13;;
76105;SDS011;64832;45.274;5.880;2022-12-28T23:18:25;7.35;;;5.63;;
76105;SDS011;64832;45.274;5.880;2022-12-28T23:21:17;6.80;;;5.63;;
76105;SDS011;64832;45.274;5.880;2022-12-28T23:24:03;8.38;;;5.90;;
76105;SDS011;64832;45.274;5.880;2022-12-28T23:26:48;6.57;;;5.20;;
76105;SDS011;64832;45.274;5.880;2022-12-28T23:29:32;7.15;;;5.75;;
76105;SDS011;64832;45.274;5.880;2022-12-28T23:31:58;7.35;;;5.55;;
76105;SDS011;64832;45.274;5.880;2022-12-28T23:34:24;6.40;;;5.22;;
76105;SDS011;64832;45.274;5.880;2022-12-28T23:36:50;7.20;;;5.68;;
76105;SDS011;64832;45.274;5.880;2022-12-28T23:39:16;5.85;;;5.00;;
76105;SDS011;64832;45.274;5.880;2022-12-28T23:41:41;7.90;;;6.05;;
76105;SDS011;64832;45.274;5.880;2022-12-28T23:44:13;7.15;;;5.95;;
76105;SDS011;64832;45.274;5.880;2022-12-28T23:46:44;7.97;;;5.53;;
76105;SDS011;64832;45.274;5.880;2022-12-28T23:49:10;9.55;;;5.72;;
76105;SDS011;64832;45.274;5.880;2022-12-28T23:51:37;5.90;;;5.30;;
76105;SDS011;64832;45.274;5.880;2022-12-28T23:54:03;7.45;;;5.78;;
76105;SDS011;64832;45.274;5.880;2022-12-28T23:56:29;6.35;;;5.10;;
76105;SDS011;64832;45.274;5.880;2022-12-28T23:58:54;6.93;;;5.40;;
